sensor_id;sensor_type;location;lat;lon;timestamp;P1;durP1;ratioP1;P2;durP2;ratioP2
75508;SDS011;64214;47.250;11.332;2023-02-28T00:00:00;6.97;;;4.90;;
75508;SDS011;64214;47.250;11.332;2023-02-28T00:00:12;7.30;;;5.10;;
75508;SDS011;64214;47.250;11.332;2023-02-28T00:00:24;6.32;;;4.90;;
75508;SDS011;64214;47.250;11.332;2023-02-28T00:00:38;6.80;;;5.00;;
75508;SDS011;64214;47.250;11.332;2023-02-28T00:00:50;7.68;;;5.10;;
75508;SDS011;64214;47.250;11.332;2023-02-28T00:01:01;8.45;;;5.18;;
75508;SDS011;64214;47.250;11.332;2023-02-28T00:01:12;7.28;;;4.85;;
75508;SDS011;64214;47.250;11.332;2023-02-28T00:01:24;7.05;;;4.75;;
75508;SDS011;64214;47.250;11.332;2023-02-28T00:01:41;5.78;;;4.47;;
75508;SDS011;64214;47.250;11.332;2023-02-28T00:01:53;5.53;;;4.47;;
75508;SDS011;64214;47.250;11.332;2023-02-28T00:02:09;5.90;;;4.70;;
75508;SDS011;64214;47.250;11.332;2023-02-28T00:02:21;5.53;;;4.68;;
75508;SDS011;64214;47.250;11.332;2023-02-28T00:02:32;5.80;;;4.55;;
75508;SDS011;64214;47.250;11.332;2023-02-28T00:02:43;6.32;;;4.63;;
75508;SDS011;64214;47.250;11.332;2023-02-28T00:02:55;6.32;;;4.65;;
75508;SDS011;64214;47.250;11.332;2023-02-28T00:03:06;5.57;;;4.53;;
75508;SDS011;64214;47.250;11.332;2023-02-28T00:03:17;5.93;;;4.88;;
75508;SDS011;64214;47.250;11.332;2023-02-28T00:03:28;6.47;;;4.90;;
75508;SDS011;64214;47.250;11.332;2023-02-28T00:03:39;6.40;;;4.85;;
75508;SDS011;64214;47.250;11.332;2023-02-28T00:03:51;6.18;;;4.60;;
75508;SDS011;64214;47.250;11.332;2023-02-28T00:04:02;5.80;;;4.43;;
75508;SDS011;64214;47.250;11.332;2023-02-28T00:04:13;6.00;;;4.50;;
75508;SDS011;64214;47.250;11.332;2023-02-28T00:04:24;5.88;;;4.55;;
75508;SDS011;64214;47.250;11.332;2023-02-28T00:04:35;5.57;;;4.80;;
75508;SDS011;64214;47.250;11.332;2023-02-28T00:04:46;5.32;;;4.72;;
75508;SDS011;64214;47.250;11.332;2023-02-28T00:05:12;6.25;;;4.85;;
75508;SDS011;64214;47.250;11.332;2023-02-28T00:05:25;5.45;;;4.53;;
75508;SDS011;64214;47.250;11.332;2023-02-28T00:05:37;5.45;;;4.45;;
75508;SDS011;64214;47.250;11.332;2023-02-28T00:05:48;5.78;;;4.65;;
75508;SDS011;64214;47.250;11.332;2023-02-28T00:05:59;7.05;;;4.70;;
75508;SDS011;64214;47.250;11.332;2023-02-28T00:06:11;7.68;;;4.80;;
75508;SDS011;64214;47.250;11.332;2023-02-28T00:06:22;7.28;;;4.70;;
75508;SDS011;64214;47.250;11.332;2023-02-28T00:06:34;6.28;;;4.75;;
75508;SDS011;64214;47.250;11.332;2023-02-28T00:06:45;6.25;;;4.60;;
75508;SDS011;64214;47.250;11.332;2023-02-28T00:06:56;6.43;;;4.90;;
75508;SDS011;64214;47.250;11.332;2023-02-28T00:07:07;6.63;;;5.07;;
75508;SDS011;64214;47.250;11.332;2023-02-28T00:07:19;6.43;;;5.00;;
75508;SDS011;64214;47.250;11.332;2023-02-28T00:07:30;6.13;;;4.90;;
75508;SDS011;64214;47.250;11.332;2023-02-28T00:07:42;5.95;;;4.65;;
75508;SDS011;64214;47.250;11.332;2023-02-28T00:07:53;6.80;;;4.70;;
75508;SDS011;64214;47.250;11.332;2023-02-28T00:08:05;6.78;;;4.88;;
75508;SDS011;64214;47.250;11.332;2023-02-28T00:08:16;6.07;;;4.70;;
75508;SDS011;64214;47.250;11.332;2023-02-28T00:08:28;5.97;;;4.97;;
75508;SDS011;64214;47.250;11.332;2023-02-28T00:08:39;6.32;;;4.95;;
75508;SDS011;64214;47.250;11.332;2023-02-28T00:08:50;7.15;;;5.05;;
75508;SDS011;64214;47.250;11.332;2023-02-28T00:09:02;6.68;;;4.80;;
75508;SDS011;64214;47.250;11.332;2023-02-28T00:09:13;6.53;;;4.78;;
75508;SDS011;64214;47.250;11.332;2023-02-28T00:09:24;6.70;;;5.15;;
75508;SDS011;64214;47.250;11.332;2023-02-28T00:09:35;7.68;;;5.55;;
75508;SDS011;64214;47.250;11.332;2023-02-28T00:09:46;7.50;;;5.53;;
75508;SDS011;64214;47.250;11.332;2023-02-28T00:09:57;6.90;;;5.10;;
75508;SDS011;64214;47.250;11.332;2023-02-28T00:10:10;6.32;;;4.68;;
75508;SDS011;64214;47.250;11.332;2023-02-28T00:10:27;6.55;;;4.68;;
75508;SDS011;64214;47.250;11.332;2023-02-28T00:10:39;6.78;;;5.00;;
75508;SDS011;64214;47.250;11.332;2023-02-28T00:10:50;7.23;;;5.33;;
75508;SDS011;64214;47.250;11.332;2023-02-28T00:11:06;7.20;;;5.50;;
75508;SDS011;64214;47.250;11.332;2023-02-28T00:11:21;6.63;;;4.88;;
75508;SDS011;64214;47.250;11.332;2023-02-28T00:11:32;6.70;;;4.50;;
75508;SDS011;64214;47.250;11.332;2023-02-28T00:11:44;7.15;;;4.57;;
75508;SDS011;64214;47.250;11.332;2023-02-28T00:11:55;6.78;;;4.85;;
75508;SDS011;64214;47.250;11.332;2023-02-28T00:12:06;5.95;;;4.88;;
75508;SDS011;64214;47.250;11.332;2023-02-28T00:12:20;5.63;;;4.78;;
75508;SDS011;64214;47.250;11.332;2023-02-28T00:12:31;5.32;;;4.53;;
75508;SDS011;64214;47.250;11.332;2023-02-28T00:12:43;6.05;;;4.40;;
75508;SDS011;64214;47.250;11.332;2023-02-28T00:12:55;6.80;;;4.47;;
75508;SDS011;64214;47.250;11.332;2023-02-28T00:13:07;7.30;;;5.07;;
75508;SDS011;64214;47.250;11.332;2023-02-28T00:13:18;7.32;;;5.30;;
75508;SDS011;64214;47.250;11.332;2023-02-28T00:13:30;6.72;;;5.15;;
75508;SDS011;64214;47.250;11.332;2023-02-28T00:13:42;6.32;;;4.93;;
75508;SDS011;64214;47.250;11.332;2023-02-28T00:13:57;6.28;;;5.07;;
75508;SDS011;64214;47.250;11.332;2023-02-28T00:14:08;6.82;;;5.00;;
75508;SDS011;64214;47.250;11.332;2023-02-28T00:14:19;6.75;;;4.70;;
75508;SDS011;64214;47.250;11.332;2023-02-28T00:14:30;7.53;;;4.97;;
75508;SDS011;64214;47.250;11.332;2023-02-28T00:14:41;7.40;;;4.93;;
75508;SDS011;64214;47.250;11.332;2023-02-28T00:14:53;7.20;;;5.07;;
75508;SDS011;64214;47.250;11.332;2023-02-28T00:15:08;7.63;;;5.00;;
75508;SDS011;64214;47.250;11.332;2023-02-28T00:15:20;7.03;;;4.90;;
75508;SDS011;64214;47.250;11.332;2023-02-28T00:15:33;6.63;;;4.88;;
75508;SDS011;64214;47.250;11.332;2023-02-28T00:15:44;6.70;;;4.72;;
75508;SDS011;64214;47.250;11.332;2023-02-28T00:16:03;6.30;;;4.68;;
75508;SDS011;64214;47.250;11.332;2023-02-28T00:16:17;6.95;;;4.95;;
75508;SDS011;64214;47.250;11.332;2023-02-28T00:16:30;7.13;;;5.35;;
75508;SDS011;64214;47.250;11.332;2023-02-28T00:16:41;6.10;;;5.10;;
75508;SDS011;64214;47.250;11.332;2023-02-28T00:16:52;6.38;;;5.13;;
75508;SDS011;64214;47.250;11.332;2023-02-28T00:17:03;6.53;;;4.82;;
75508;SDS011;64214;47.250;11.332;2023-02-28T00:17:14;7.43;;;5.20;;
75508;SDS011;64214;47.250;11.332;2023-02-28T00:17:28;6.75;;;5.05;;
75508;SDS011;64214;47.250;11.332;2023-02-28T00:17:39;5.82;;;4.97;;
75508;SDS011;64214;47.250;11.332;2023-02-28T00:17:50;6.88;;;5.05;;
75508;SDS011;64214;47.250;11.332;2023-02-28T00:18:02;7.13;;;4.90;;
75508;SDS011;64214;47.250;11.332;2023-02-28T00:18:13;7.22;;;4.75;;
75508;SDS011;64214;47.250;11.332;2023-02-28T00:18:24;6.25;;;4.40;;
75508;SDS011;64214;47.250;11.332;2023-02-28T00:18:36;6.65;;;4.50;;
75508;SDS011;64214;47.250;11.332;2023-02-28T00:18:47;7.28;;;4.88;;
75508;SDS011;64214;47.250;11.332;2023-02-28T00:18:59;7.18;;;4.95;;
75508;SDS011;64214;47.250;11.332;2023-02-28T00:19:10;6.07;;;4.93;;
75508;SDS011;64214;47.250;11.332;2023-02-28T00:19:23;5.57;;;4.90;;
75508;SDS011;64214;47.250;11.332;2023-02-28T00:19:35;6.43;;;4.93;;
75508;SDS011;64214;47.250;11.332;2023-02-28T00:19:49;6.95;;;4.85;;
75508;SDS011;64214;47.250;11.332;2023-02-28T00:20:01;7.70;;;5.05;;
75508;SDS011;64214;47.250;11.332;2023-02-28T00:20:22;6.03;;;4.72;;
75508;SDS011;64214;47.250;11.332;2023-02-28T00:20:33;6.18;;;4.82;;
75508;SDS011;64214;47.250;11.332;2023-02-28T00:20:44;6.72;;;5.05;;
75508;SDS011;64214;47.250;11.332;2023-02-28T00:20:56;6.60;;;5.13;;
75508;SDS011;64214;47.250;11.332;2023-02-28T00:21:08;6.05;;;4.75;;
75508;SDS011;64214;47.250;11.332;2023-02-28T00:21:19;5.63;;;4.40;;
75508;SDS011;64214;47.250;11.332;2023-02-28T00:21:31;5.90;;;4.38;;
75508;SDS011;64214;47.250;11.332;2023-02-28T00:21:42;6.20;;;4.70;;
75508;SDS011;64214;47.250;11.332;2023-02-28T00:21:53;7.13;;;5.03;;
75508;SDS011;64214;47.250;11.332;2023-02-28T00:22:04;7.38;;;5.18;;
75508;SDS011;64214;47.250;11.332;2023-02-28T00:22:19;6.55;;;4.95;;
75508;SDS011;64214;47.250;11.332;2023-02-28T00:22:31;5.90;;;4.78;;
75508;SDS011;64214;47.250;11.332;2023-02-28T00:22:43;6.33;;;4.63;;
75508;SDS011;64214;47.250;11.332;2023-02-28T00:22:56;6.93;;;4.68;;
75508;SDS011;64214;47.250;11.332;2023-02-28T00:23:07;6.95;;;4.82;;
75508;SDS011;64214;47.250;11.332;2023-02-28T00:23:18;7.70;;;5.28;;
75508;SDS011;64214;47.250;11.332;2023-02-28T00:23:29;7.38;;;5.22;;
75508;SDS011;64214;47.250;11.332;2023-02-28T00:23:41;6.85;;;5.03;;
75508;SDS011;64214;47.250;11.332;2023-02-28T00:23:52;5.93;;;4.85;;
75508;SDS011;64214;47.250;11.332;2023-02-28T00:24:03;6.13;;;4.72;;
75508;SDS011;64214;47.250;11.332;2023-02-28T00:24:14;7.22;;;5.05;;
75508;SDS011;64214;47.250;11.332;2023-02-28T00:24:25;7.80;;;4.90;;
75508;SDS011;64214;47.250;11.332;2023-02-28T00:24:36;9.05;;;5.38;;
75508;SDS011;64214;47.250;11.332;2023-02-28T00:24:47;8.38;;;5.30;;
75508;SDS011;64214;47.250;11.332;2023-02-28T00:24:58;7.93;;;5.60;;
75508;SDS011;64214;47.250;11.332;2023-02-28T00:25:11;6.45;;;5.05;;
75508;SDS011;64214;47.250;11.332;2023-02-28T00:25:24;6.70;;;4.80;;
75508;SDS011;64214;47.250;11.332;2023-02-28T00:25:36;6.90;;;4.82;;
75508;SDS011;64214;47.250;11.332;2023-02-28T00:25:47;7.18;;;4.80;;
75508;SDS011;64214;47.250;11.332;2023-02-28T00:25:58;7.82;;;4.85;;
75508;SDS011;64214;47.250;11.332;2023-02-28T00:26:09;7.95;;;4.88;;
75508;SDS011;64214;47.250;11.332;2023-02-28T00:26:21;7.68;;;5.07;;
75508;SDS011;64214;47.250;11.332;2023-02-28T00:26:33;6.35;;;4.88;;
75508;SDS011;64214;47.250;11.332;2023-02-28T00:26:44;6.38;;;5.13;;
75508;SDS011;64214;47.250;11.332;2023-02-28T00:26:55;6.05;;;5.00;;
75508;SDS011;64214;47.250;11.332;2023-02-28T00:27:06;7.10;;;5.10;;
75508;SDS011;64214;47.250;11.332;2023-02-28T00:27:17;6.93;;;4.82;;
75508;SDS011;64214;47.250;11.332;2023-02-28T00:27:30;7.15;;;5.03;;
75508;SDS011;64214;47.250;11.332;2023-02-28T00:27:42;5.97;;;4.95;;
75508;SDS011;64214;47.250;11.332;2023-02-28T00:27:53;6.47;;;4.90;;
75508;SDS011;64214;47.250;11.332;2023-02-28T00:28:04;5.90;;;4.72;;
75508;SDS011;64214;47.250;11.332;2023-02-28T00:28:17;5.93;;;4.93;;
75508;SDS011;64214;47.250;11.332;2023-02-28T00:28:28;6.00;;;5.05;;
75508;SDS011;64214;47.250;11.332;2023-02-28T00:28:40;6.40;;;5.00;;
75508;SDS011;64214;47.250;11.332;2023-02-28T00:28:51;5.87;;;4.43;;
75508;SDS011;64214;47.250;11.332;2023-02-28T00:29:03;6.07;;;4.50;;
75508;SDS011;64214;47.250;11.332;2023-02-28T00:29:14;6.50;;;4.80;;
75508;SDS011;64214;47.250;11.332;2023-02-28T00:29:28;5.95;;;4.80;;
75508;SDS011;64214;47.250;11.332;2023-02-28T00:29:39;5.50;;;4.93;;
75508;SDS011;64214;47.250;11.332;2023-02-28T00:29:50;6.00;;;5.15;;
75508;SDS011;64214;47.250;11.332;2023-02-28T00:30:02;6.18;;;5.22;;
75508;SDS011;64214;47.250;11.332;2023-02-28T00:30:18;6.45;;;5.07;;
75508;SDS011;64214;47.250;11.332;2023-02-28T00:30:30;6.00;;;5.13;;
75508;SDS011;64214;47.250;11.332;2023-02-28T00:30:41;6.35;;;5.13;;
75508;SDS011;64214;47.250;11.332;2023-02-28T00:30:52;6.28;;;5.10;;
75508;SDS011;64214;47.250;11.332;2023-02-28T00:31:04;6.32;;;4.88;;
75508;SDS011;64214;47.250;11.332;2023-02-28T00:31:15;6.30;;;4.88;;
75508;SDS011;64214;47.250;11.332;2023-02-28T00:31:26;6.90;;;4.93;;
75508;SDS011;64214;47.250;11.332;2023-02-28T00:31:37;6.95;;;5.10;;
75508;SDS011;64214;47.250;11.332;2023-02-28T00:31:48;6.32;;;4.95;;
75508;SDS011;64214;47.250;11.332;2023-02-28T00:32:00;6.45;;;4.70;;
75508;SDS011;64214;47.250;11.332;2023-02-28T00:32:11;6.53;;;4.60;;
75508;SDS011;64214;47.250;11.332;2023-02-28T00:32:22;7.05;;;4.80;;
75508;SDS011;64214;47.250;11.332;2023-02-28T00:32:34;6.68;;;4.90;;
75508;SDS011;64214;47.250;11.332;2023-02-28T00:32:45;6.88;;;5.15;;
75508;SDS011;64214;47.250;11.332;2023-02-28T00:32:57;6.63;;;4.97;;
75508;SDS011;64214;47.250;11.332;2023-02-28T00:33:08;7.18;;;5.18;;
75508;SDS011;64214;47.250;11.332;2023-02-28T00:33:19;6.80;;;5.13;;
75508;SDS011;64214;47.250;11.332;2023-02-28T00:33:30;6.80;;;5.28;;
75508;SDS011;64214;47.250;11.332;2023-02-28T00:33:41;6.28;;;4.93;;
75508;SDS011;64214;47.250;11.332;2023-02-28T00:33:52;6.72;;;4.90;;
75508;SDS011;64214;47.250;11.332;2023-02-28T00:34:05;6.82;;;5.05;;
75508;SDS011;64214;47.250;11.332;2023-02-28T00:34:16;6.72;;;5.03;;
75508;SDS011;64214;47.250;11.332;2023-02-28T00:34:27;6.30;;;4.95;;
75508;SDS011;64214;47.250;11.332;2023-02-28T00:34:38;6.53;;;5.03;;
75508;SDS011;64214;47.250;11.332;2023-02-28T00:34:50;6.57;;;5.00;;
75508;SDS011;64214;47.250;11.332;2023-02-28T00:35:01;5.85;;;4.68;;
75508;SDS011;64214;47.250;11.332;2023-02-28T00:35:13;6.13;;;4.80;;
75508;SDS011;64214;47.250;11.332;2023-02-28T00:35:25;6.00;;;4.88;;
75508;SDS011;64214;47.250;11.332;2023-02-28T00:35:36;6.30;;;4.90;;
75508;SDS011;64214;47.250;11.332;2023-02-28T00:35:48;6.28;;;5.03;;
75508;SDS011;64214;47.250;11.332;2023-02-28T00:36:06;6.60;;;5.38;;
75508;SDS011;64214;47.250;11.332;2023-02-28T00:36:20;6.43;;;4.97;;
75508;SDS011;64214;47.250;11.332;2023-02-28T00:36:31;7.05;;;4.80;;
75508;SDS011;64214;47.250;11.332;2023-02-28T00:36:42;7.15;;;5.07;;
75508;SDS011;64214;47.250;11.332;2023-02-28T00:36:56;6.70;;;5.10;;
75508;SDS011;64214;47.250;11.332;2023-02-28T00:37:07;7.07;;;5.30;;
75508;SDS011;64214;47.250;11.332;2023-02-28T00:37:19;6.47;;;5.05;;
75508;SDS011;64214;47.250;11.332;2023-02-28T00:37:30;6.25;;;5.07;;
75508;SDS011;64214;47.250;11.332;2023-02-28T00:37:42;6.65;;;5.10;;
75508;SDS011;64214;47.250;11.332;2023-02-28T00:37:53;7.03;;;4.88;;
75508;SDS011;64214;47.250;11.332;2023-02-28T00:38:04;7.35;;;4.85;;
75508;SDS011;64214;47.250;11.332;2023-02-28T00:38:16;6.97;;;4.95;;
75508;SDS011;64214;47.250;11.332;2023-02-28T00:38:27;6.57;;;5.10;;
75508;SDS011;64214;47.250;11.332;2023-02-28T00:38:38;5.97;;;5.03;;
75508;SDS011;64214;47.250;11.332;2023-02-28T00:38:50;6.78;;;5.03;;
75508;SDS011;64214;47.250;11.332;2023-02-28T00:39:01;6.65;;;4.80;;
75508;SDS011;64214;47.250;11.332;2023-02-28T00:39:13;6.50;;;4.82;;
75508;SDS011;64214;47.250;11.332;2023-02-28T00:39:24;6.32;;;5.00;;
75508;SDS011;64214;47.250;11.332;2023-02-28T00:39:35;6.03;;;4.95;;
75508;SDS011;64214;47.250;11.332;2023-02-28T00:39:47;6.93;;;5.00;;
75508;SDS011;64214;47.250;11.332;2023-02-28T00:40:00;6.70;;;4.90;;
75508;SDS011;64214;47.250;11.332;2023-02-28T00:40:11;7.00;;;5.22;;
75508;SDS011;64214;47.250;11.332;2023-02-28T00:40:22;6.43;;;4.90;;
75508;SDS011;64214;47.250;11.332;2023-02-28T00:40:34;6.43;;;4.95;;
75508;SDS011;64214;47.250;11.332;2023-02-28T00:40:45;6.30;;;4.95;;
75508;SDS011;64214;47.250;11.332;2023-02-28T00:40:56;6.07;;;5.23;;
75508;SDS011;64214;47.250;11.332;2023-02-28T00:41:09;5.80;;;5.15;;
75508;SDS011;64214;47.250;11.332;2023-02-28T00:41:20;5.63;;;5.03;;
75508;SDS011;64214;47.250;11.332;2023-02-28T00:41:32;6.22;;;5.20;;
75508;SDS011;64214;47.250;11.332;2023-02-28T00:41:43;7.15;;;5.35;;
75508;SDS011;64214;47.250;11.332;2023-02-28T00:41:54;7.35;;;5.18;;
75508;SDS011;64214;47.250;11.332;2023-02-28T00:42:05;7.45;;;4.97;;
75508;SDS011;64214;47.250;11.332;2023-02-28T00:42:18;7.90;;;5.05;;
75508;SDS011;64214;47.250;11.332;2023-02-28T00:42:32;7.47;;;5.00;;
75508;SDS011;64214;47.250;11.332;2023-02-28T00:42:44;6.65;;;4.85;;
75508;SDS011;64214;47.250;11.332;2023-02-28T00:42:55;6.82;;;5.07;;
75508;SDS011;64214;47.250;11.332;2023-02-28T00:43:06;6.55;;;5.03;;
75508;SDS011;64214;47.250;11.332;2023-02-28T00:43:17;7.10;;;5.25;;
75508;SDS011;64214;47.250;11.332;2023-02-28T00:43:29;6.78;;;5.22;;
75508;SDS011;64214;47.250;11.332;2023-02-28T00:43:41;7.30;;;5.38;;
75508;SDS011;64214;47.250;11.332;2023-02-28T00:43:52;7.30;;;5.47;;
75508;SDS011;64214;47.250;11.332;2023-02-28T00:44:03;7.45;;;5.25;;
75508;SDS011;64214;47.250;11.332;2023-02-28T00:44:16;6.47;;;4.90;;
75508;SDS011;64214;47.250;11.332;2023-02-28T00:44:27;5.90;;;4.80;;
75508;SDS011;64214;47.250;11.332;2023-02-28T00:44:39;6.10;;;5.15;;
75508;SDS011;64214;47.250;11.332;2023-02-28T00:44:50;6.45;;;5.22;;
75508;SDS011;64214;47.250;11.332;2023-02-28T00:45:02;6.38;;;5.13;;
75508;SDS011;64214;47.250;11.332;2023-02-28T00:45:15;5.95;;;4.90;;
75508;SDS011;64214;47.250;11.332;2023-02-28T00:45:26;6.13;;;5.00;;
75508;SDS011;64214;47.250;11.332;2023-02-28T00:45:37;7.20;;;5.10;;
75508;SDS011;64214;47.250;11.332;2023-02-28T00:45:48;8.68;;;5.10;;
75508;SDS011;64214;47.250;11.332;2023-02-28T00:46:00;8.80;;;5.32;;
75508;SDS011;64214;47.250;11.332;2023-02-28T00:46:11;7.45;;;5.47;;
75508;SDS011;64214;47.250;11.332;2023-02-28T00:46:22;6.78;;;5.20;;
75508;SDS011;64214;47.250;11.332;2023-02-28T00:46:35;6.72;;;4.80;;
75508;SDS011;64214;47.250;11.332;2023-02-28T00:46:46;7.13;;;4.90;;
75508;SDS011;64214;47.250;11.332;2023-02-28T00:46:57;7.22;;;5.30;;
75508;SDS011;64214;47.250;11.332;2023-02-28T00:47:09;6.57;;;5.10;;
75508;SDS011;64214;47.250;11.332;2023-02-28T00:47:20;6.45;;;5.20;;
75508;SDS011;64214;47.250;11.332;2023-02-28T00:47:31;6.65;;;5.32;;
75508;SDS011;64214;47.250;11.332;2023-02-28T00:47:42;6.60;;;5.23;;
75508;SDS011;64214;47.250;11.332;2023-02-28T00:47:53;6.45;;;5.10;;
75508;SDS011;64214;47.250;11.332;2023-02-28T00:48:05;6.75;;;5.03;;
75508;SDS011;64214;47.250;11.332;2023-02-28T00:48:16;6.72;;;5.00;;
75508;SDS011;64214;47.250;11.332;2023-02-28T00:48:27;6.90;;;5.10;;
75508;SDS011;64214;47.250;11.332;2023-02-28T00:48:39;6.32;;;5.00;;
75508;SDS011;64214;47.250;11.332;2023-02-28T00:48:50;6.22;;;5.03;;
75508;SDS011;64214;47.250;11.332;2023-02-28T00:49:01;6.53;;;5.05;;
75508;SDS011;64214;47.250;11.332;2023-02-28T00:49:12;6.30;;;5.35;;
75508;SDS011;64214;47.250;11.332;2023-02-28T00:49:23;6.50;;;5.30;;
75508;SDS011;64214;47.250;11.332;2023-02-28T00:49:35;6.88;;;5.20;;
75508;SDS011;64214;47.250;11.332;2023-02-28T00:49:46;6.53;;;4.93;;
75508;SDS011;64214;47.250;11.332;2023-02-28T00:49:57;6.05;;;4.70;;
75508;SDS011;64214;47.250;11.332;2023-02-28T00:50:09;5.55;;;4.60;;
75508;SDS011;64214;47.250;11.332;2023-02-28T00:50:21;6.18;;;4.68;;
75508;SDS011;64214;47.250;11.332;2023-02-28T00:50:32;6.68;;;4.88;;
75508;SDS011;64214;47.250;11.332;2023-02-28T00:50:43;6.97;;;5.13;;
75508;SDS011;64214;47.250;11.332;2023-02-28T00:50:54;7.20;;;5.10;;
75508;SDS011;64214;47.250;11.332;2023-02-28T00:51:05;6.90;;;4.88;;
75508;SDS011;64214;47.250;11.332;2023-02-28T00:51:17;6.73;;;4.63;;
75508;SDS011;64214;47.250;11.332;2023-02-28T00:51:28;7.75;;;4.88;;
75508;SDS011;64214;47.250;11.332;2023-02-28T00:51:41;8.20;;;5.28;;
75508;SDS011;64214;47.250;11.332;2023-02-28T00:51:53;7.40;;;5.22;;
75508;SDS011;64214;47.250;11.332;2023-02-28T00:52:04;7.53;;;5.45;;
75508;SDS011;64214;47.250;11.332;2023-02-28T00:52:16;6.65;;;5.07;;
75508;SDS011;64214;47.250;11.332;2023-02-28T00:52:27;6.55;;;4.95;;
75508;SDS011;64214;47.250;11.332;2023-02-28T00:52:39;6.25;;;4.57;;
75508;SDS011;64214;47.250;11.332;2023-02-28T00:52:50;7.47;;;4.63;;
75508;SDS011;64214;47.250;11.332;2023-02-28T00:53:01;6.75;;;4.57;;
75508;SDS011;64214;47.250;11.332;2023-02-28T00:53:12;6.47;;;4.57;;
75508;SDS011;64214;47.250;11.332;2023-02-28T00:53:23;5.93;;;4.57;;
75508;SDS011;64214;47.250;11.332;2023-02-28T00:53:34;7.03;;;5.00;;
75508;SDS011;64214;47.250;11.332;2023-02-28T00:53:45;7.78;;;5.68;;
75508;SDS011;64214;47.250;11.332;2023-02-28T00:53:57;8.13;;;5.68;;
75508;SDS011;64214;47.250;11.332;2023-02-28T00:54:08;7.32;;;5.25;;
75508;SDS011;64214;47.250;11.332;2023-02-28T00:54:19;6.55;;;4.78;;
75508;SDS011;64214;47.250;11.332;2023-02-28T00:54:32;6.93;;;5.07;;
75508;SDS011;64214;47.250;11.332;2023-02-28T00:54:43;7.05;;;5.15;;
75508;SDS011;64214;47.250;11.332;2023-02-28T00:54:54;6.65;;;5.10;;
75508;SDS011;64214;47.250;11.332;2023-02-28T00:55:05;6.35;;;4.93;;
75508;SDS011;64214;47.250;11.332;2023-02-28T00:55:17;6.32;;;4.80;;
75508;SDS011;64214;47.250;11.332;2023-02-28T00:55:29;6.20;;;4.95;;
75508;SDS011;64214;47.250;11.332;2023-02-28T00:55:40;5.80;;;4.93;;
75508;SDS011;64214;47.250;11.332;2023-02-28T00:55:51;6.13;;;5.03;;
75508;SDS011;64214;47.250;11.332;2023-02-28T00:56:02;6.18;;;5.00;;
75508;SDS011;64214;47.250;11.332;2023-02-28T00:56:14;6.22;;;4.90;;
75508;SDS011;64214;47.250;11.332;2023-02-28T00:56:25;6.75;;;5.20;;
75508;SDS011;64214;47.250;11.332;2023-02-28T00:56:36;7.30;;;5.22;;
75508;SDS011;64214;47.250;11.332;2023-02-28T00:56:48;7.22;;;5.30;;
75508;SDS011;64214;47.250;11.332;2023-02-28T00:57:01;6.77;;;5.20;;
75508;SDS011;64214;47.250;11.332;2023-02-28T00:57:12;6.95;;;5.28;;
75508;SDS011;64214;47.250;11.332;2023-02-28T00:57:24;6.80;;;5.03;;
75508;SDS011;64214;47.250;11.332;2023-02-28T00:57:35;6.95;;;5.13;;
75508;SDS011;64214;47.250;11.332;2023-02-28T00:57:46;6.80;;;5.22;;
75508;SDS011;64214;47.250;11.332;2023-02-28T00:57:57;7.27;;;5.30;;
75508;SDS011;64214;47.250;11.332;2023-02-28T00:58:09;7.07;;;5.28;;
75508;SDS011;64214;47.250;11.332;2023-02-28T00:58:20;6.50;;;5.10;;
75508;SDS011;64214;47.250;11.332;2023-02-28T00:58:32;7.45;;;5.05;;
75508;SDS011;64214;47.250;11.332;2023-02-28T00:58:44;7.88;;;5.05;;
75508;SDS011;64214;47.250;11.332;2023-02-28T00:58:55;7.38;;;5.13;;
75508;SDS011;64214;47.250;11.332;2023-02-28T00:59:07;6.20;;;5.00;;
75508;SDS011;64214;47.250;11.332;2023-02-28T00:59:18;6.28;;;5.15;;
75508;SDS011;64214;47.250;11.332;2023-02-28T00:59:29;6.85;;;5.10;;
75508;SDS011;64214;47.250;11.332;2023-02-28T00:59:41;7.15;;;5.05;;
75508;SDS011;64214;47.250;11.332;2023-02-28T00:59:52;7.35;;;5.00;;
75508;SDS011;64214;47.250;11.332;2023-02-28T01:00:06;6.65;;;5.00;;
75508;SDS011;64214;47.250;11.332;2023-02-28T01:00:18;6.53;;;5.20;;
75508;SDS011;64214;47.250;11.332;2023-02-28T01:00:29;6.43;;;5.07;;
75508;SDS011;64214;47.250;11.332;2023-02-28T01:00:40;5.82;;;4.72;;
75508;SDS011;64214;47.250;11.332;2023-02-28T01:00:51;5.78;;;4.70;;
75508;SDS011;64214;47.250;11.332;2023-02-28T01:01:04;6.32;;;5.00;;
75508;SDS011;64214;47.250;11.332;2023-02-28T01:01:15;6.47;;;5.37;;
75508;SDS011;64214;47.250;11.332;2023-02-28T01:01:26;5.83;;;4.97;;
75508;SDS011;64214;47.250;11.332;2023-02-28T01:01:38;5.93;;;4.75;;
75508;SDS011;64214;47.250;11.332;2023-02-28T01:01:49;6.25;;;4.70;;
75508;SDS011;64214;47.250;11.332;2023-02-28T01:02:00;6.97;;;5.22;;
75508;SDS011;64214;47.250;11.332;2023-02-28T01:02:11;6.82;;;5.20;;
75508;SDS011;64214;47.250;11.332;2023-02-28T01:02:22;6.47;;;5.38;;
75508;SDS011;64214;47.250;11.332;2023-02-28T01:02:34;6.32;;;5.10;;
75508;SDS011;64214;47.250;11.332;2023-02-28T01:02:45;6.10;;;5.00;;
75508;SDS011;64214;47.250;11.332;2023-02-28T01:02:56;6.03;;;4.80;;
75508;SDS011;64214;47.250;11.332;2023-02-28T01:03:07;6.10;;;5.00;;
75508;SDS011;64214;47.250;11.332;2023-02-28T01:03:18;6.85;;;5.32;;
75508;SDS011;64214;47.250;11.332;2023-02-28T01:03:31;7.50;;;5.50;;
75508;SDS011;64214;47.250;11.332;2023-02-28T01:03:42;7.60;;;5.75;;
75508;SDS011;64214;47.250;11.332;2023-02-28T01:03:54;7.32;;;5.32;;
75508;SDS011;64214;47.250;11.332;2023-02-28T01:04:05;7.25;;;5.35;;
75508;SDS011;64214;47.250;11.332;2023-02-28T01:04:16;7.30;;;5.20;;
75508;SDS011;64214;47.250;11.332;2023-02-28T01:04:28;7.18;;;5.30;;
75508;SDS011;64214;47.250;11.332;2023-02-28T01:04:39;7.18;;;5.18;;
75508;SDS011;64214;47.250;11.332;2023-02-28T01:04:50;6.88;;;4.90;;
75508;SDS011;64214;47.250;11.332;2023-02-28T01:05:01;7.18;;;4.63;;
75508;SDS011;64214;47.250;11.332;2023-02-28T01:05:14;6.38;;;4.65;;
75508;SDS011;64214;47.250;11.332;2023-02-28T01:05:29;6.07;;;5.15;;
75508;SDS011;64214;47.250;11.332;2023-02-28T01:05:41;6.30;;;5.20;;
75508;SDS011;64214;47.250;11.332;2023-02-28T01:05:52;6.67;;;5.00;;
75508;SDS011;64214;47.250;11.332;2023-02-28T01:06:06;6.82;;;5.00;;
75508;SDS011;64214;47.250;11.332;2023-02-28T01:06:17;6.55;;;5.13;;
75508;SDS011;64214;47.250;11.332;2023-02-28T01:06:28;6.35;;;5.15;;
75508;SDS011;64214;47.250;11.332;2023-02-28T01:06:39;6.22;;;5.03;;
75508;SDS011;64214;47.250;11.332;2023-02-28T01:06:54;6.72;;;5.03;;
75508;SDS011;64214;47.250;11.332;2023-02-28T01:07:05;7.53;;;5.20;;
75508;SDS011;64214;47.250;11.332;2023-02-28T01:07:17;7.07;;;5.05;;
75508;SDS011;64214;47.250;11.332;2023-02-28T01:07:28;6.75;;;5.10;;
75508;SDS011;64214;47.250;11.332;2023-02-28T01:07:39;6.43;;;5.10;;
75508;SDS011;64214;47.250;11.332;2023-02-28T01:07:53;6.10;;;5.17;;
75508;SDS011;64214;47.250;11.332;2023-02-28T01:08:04;5.68;;;5.07;;
75508;SDS011;64214;47.250;11.332;2023-02-28T01:08:15;5.68;;;5.05;;
75508;SDS011;64214;47.250;11.332;2023-02-28T01:08:26;5.72;;;4.88;;
75508;SDS011;64214;47.250;11.332;2023-02-28T01:08:37;5.65;;;4.80;;
75508;SDS011;64214;47.250;11.332;2023-02-28T01:08:49;6.57;;;5.10;;
75508;SDS011;64214;47.250;11.332;2023-02-28T01:09:00;6.85;;;5.40;;
75508;SDS011;64214;47.250;11.332;2023-02-28T01:09:11;6.43;;;5.13;;
75508;SDS011;64214;47.250;11.332;2023-02-28T01:09:22;7.07;;;5.15;;
75508;SDS011;64214;47.250;11.332;2023-02-28T01:09:33;6.93;;;5.05;;